Time;durP1;ratioP1;P1;durP2;ratioP2;P2;SDS_P1;SDS_P2;PMS_P1;PMS_P2;Temp;Humidity;BMP_temperature;BMP_pressure;BME280_temperature;BME280_humidity;BME280_pressure;Samples;Min_cycle;Max_cycle;Signal;HPM_P1;HPM_P2
2021/06/17 00:00:13;;;;;;;16.20;15.20;;;25.20;84.80;;;;;;3584910;40;21054;-67
2021/06/17 00:02:41;;;;;;;17.50;16.30;;;25.20;84.80;;;;;;3585467;40;20880;-66
2021/06/17 00:05:11;;;;;;;17.43;16.43;;;25.20;84.80;;;;;;3586795;40;20474;-66
2021/06/17 00:07:40;;;;;;;16.93;15.87;;;25.20;84.80;;;;;;3576238;40;20562;-67
2021/06/17 00:10:13;;;;;;;17.77;16.60;;;25.20;84.80;;;;;;3576528;40;20484;-67
2021/06/17 00:12:43;;;;;;;17.10;15.80;;;25.20;84.80;;;;;;3584700;40;20506;-67
2021/06/17 00:15:13;;;;;;;18.00;16.73;;;25.20;84.90;;;;;;3585834;40;20454;-67
2021/06/17 00:17:43;;;;;;;18.20;16.80;;;25.20;84.90;;;;;;3585674;40;20494;-67
2021/06/17 00:20:12;;;;;;;17.60;16.40;;;25.20;84.90;;;;;;3586559;40;20489;-67
2021/06/17 00:22:41;;;;;;;16.67;15.63;;;25.20;84.90;;;;;;3578322;40;20518;-67
2021/06/17 00:25:09;;;;;;;16.80;15.70;;;25.20;84.90;;;;;;3595815;40;20481;-67
2021/06/17 00:27:36;;;;;;;17.70;16.50;;;25.20;84.90;;;;;;3603598;39;21162;-67
2021/06/17 00:30:08;;;;;;;17.07;15.97;;;25.20;84.90;;;;;;3607179;39;20472;-67
2021/06/17 00:32:36;;;;;;;18.20;17.00;;;25.20;84.90;;;;;;3599861;39;20732;-67
2021/06/17 00:35:07;;;;;;;16.70;15.60;;;25.20;84.90;;;;;;3596271;40;20501;-67
2021/06/17 00:37:34;;;;;;;18.33;17.03;;;25.20;84.90;;;;;;3597212;39;20477;-67
2021/06/17 00:40:04;;;;;;;17.37;16.17;;;25.20;85.00;;;;;;3597169;40;20477;-67
2021/06/17 00:42:33;;;;;;;16.43;15.43;;;25.20;85.00;;;;;;3587876;40;20913;-67
2021/06/17 00:45:00;;;;;;;16.13;15.23;;;25.20;85.00;;;;;;3596512;40;20477;-67
2021/06/17 00:47:30;;;;;;;18.07;16.67;;;25.20;85.00;;;;;;3599897;39;20483;-67
2021/06/17 00:50:00;;;;;;;16.50;15.37;;;25.20;85.10;;;;;;3607068;39;20565;-67
2021/06/17 00:52:29;;;;;;;17.43;16.23;;;25.20;85.00;;;;;;3606711;39;20525;-67
2021/06/17 00:54:58;;;;;;;15.93;15.03;;;25.20;85.00;;;;;;3607606;39;20480;-67
2021/06/17 00:57:30;;;;;;;17.73;16.37;;;25.20;85.00;;;;;;3603616;39;20539;-67
2021/06/17 00:59:58;;;;;;;18.10;16.80;;;25.20;85.00;;;;;;3596361;40;20485;-67
2021/06/17 01:02:26;;;;;;;18.73;17.30;;;25.20;85.00;;;;;;3596543;39;20473;-67
2021/06/17 01:04:55;;;;;;;17.70;16.60;;;25.20;85.00;;;;;;3596327;40;20909;-67
2021/06/17 01:07:33;;;;;;;17.23;16.13;;;25.20;85.00;;;;;;3595744;39;20484;-67
2021/06/17 01:10:08;;;;;;;16.90;15.80;;;25.20;85.10;;;;;;3596241;40;20489;-67
2021/06/17 01:12:52;;;;;;;16.77;15.77;;;25.20;85.10;;;;;;3595963;39;20589;-67
2021/06/17 01:15:22;;;;;;;17.33;16.23;;;25.20;85.10;;;;;;3596618;40;20477;-66
2021/06/17 01:18:03;;;;;;;17.30;16.10;;;25.20;85.10;;;;;;3596078;39;20481;-66
2021/06/17 01:20:36;;;;;;;19.23;17.93;;;25.20;85.10;;;;;;3595816;40;20492;-66
2021/06/17 01:23:26;;;;;;;16.67;15.37;;;25.20;85.10;;;;;;3596500;39;20481;-67
2021/06/17 01:26:09;;;;;;;16.67;15.57;;;25.20;85.10;;;;;;3596385;40;20484;-66
2021/06/17 01:28:40;;;;;;;17.60;16.27;;;25.20;85.00;;;;;;3596088;39;20484;-66
2021/06/17 01:31:11;;;;;;;17.43;16.23;;;25.20;85.00;;;;;;3596527;40;20485;-66
2021/06/17 01:33:43;;;;;;;16.30;15.20;;;25.20;85.00;;;;;;3596567;39;21056;-67
2021/06/17 01:36:17;;;;;;;16.97;15.97;;;25.20;85.10;;;;;;3599746;39;20480;-67
2021/06/17 01:38:50;;;;;;;17.10;15.80;;;25.20;85.10;;;;;;3604632;39;20701;-67
2021/06/17 01:41:21;;;;;;;17.23;16.13;;;25.20;85.10;;;;;;3600071;39;20497;-67
2021/06/17 01:43:51;;;;;;;17.70;16.50;;;25.20;85.10;;;;;;3596883;39;20488;-66
2021/06/17 01:46:20;;;;;;;19.07;17.60;;;25.20;85.10;;;;;;3595407;40;20481;-67
2021/06/17 01:48:51;;;;;;;17.83;16.63;;;25.20;85.10;;;;;;3595732;39;20499;-67
2021/06/17 01:51:20;;;;;;;17.00;15.57;;;25.20;85.10;;;;;;3596014;40;20476;-67
2021/06/17 01:53:49;;;;;;;17.90;16.60;;;25.20;85.10;;;;;;3600140;39;20492;-67
2021/06/17 01:56:19;;;;;;;18.33;16.40;;;25.20;85.20;;;;;;3597549;39;20826;-66
2021/06/17 01:58:48;;;;;;;17.77;16.57;;;25.20;85.20;;;;;;3601454;39;20501;-67
2021/06/17 02:01:17;;;;;;;17.53;16.30;;;25.20;85.20;;;;;;3605303;39;20788;-66
2021/06/17 02:03:46;;;;;;;18.03;16.87;;;25.20;85.20;;;;;;3603139;39;20482;-66
2021/06/17 02:06:15;;;;;;;17.70;16.60;;;25.20;85.20;;;;;;3596251;40;20578;-67
2021/06/17 02:08:46;;;;;;;17.37;16.20;;;25.20;85.20;;;;;;3596709;40;20784;-67
2021/06/17 02:11:15;;;;;;;17.23;16.13;;;25.20;85.10;;;;;;3595562;39;20478;-67
2021/06/17 02:13:43;;;;;;;19.27;17.97;;;25.20;85.10;;;;;;3595711;39;20888;-67
2021/06/17 02:16:12;;;;;;;18.67;17.27;;;25.20;85.10;;;;;;3596030;40;20525;-67
2021/06/17 02:18:42;;;;;;;18.03;16.90;;;25.10;85.00;;;;;;3596327;40;20481;-67
2021/06/17 02:21:09;;;;;;;17.43;16.23;;;25.10;85.00;;;;;;3600028;39;20476;-67
2021/06/17 02:23:38;;;;;;;18.67;17.30;;;25.10;85.00;;;;;;3594632;39;20524;-66
2021/06/17 02:26:08;;;;;;;17.80;16.47;;;25.10;85.00;;;;;;3595904;40;20488;-66
2021/06/17 02:28:42;;;;;;;18.40;17.30;;;25.20;85.10;;;;;;3596046;40;20479;-66
2021/06/17 02:31:12;;;;;;;19.00;17.60;;;25.20;85.10;;;;;;3597572;39;20510;-67
2021/06/17 02:33:42;;;;;;;18.23;17.17;;;25.10;85.00;;;;;;3607173;39;21057;-67
2021/06/17 02:36:14;;;;;;;18.23;17.00;;;25.10;85.00;;;;;;3597954;39;20500;-67
2021/06/17 02:38:44;;;;;;;18.50;17.33;;;25.10;85.00;;;;;;3607941;39;20518;-67
2021/06/17 02:41:14;;;;;;;17.70;16.60;;;25.10;85.00;;;;;;3607685;39;20506;-67
2021/06/17 02:43:47;;;;;;;17.77;16.67;;;25.10;85.00;;;;;;3602922;39;20491;-66
2021/06/17 02:46:15;;;;;;;18.93;17.60;;;25.10;85.00;;;;;;3588096;40;20554;-67
2021/06/17 02:48:44;;;;;;;18.83;17.70;;;25.10;85.00;;;;;;3577932;40;21020;-67
2021/06/17 02:51:12;;;;;;;18.93;17.73;;;25.20;85.10;;;;;;3566685;40;20540;-67
2021/06/17 02:53:39;;;;;;;19.17;17.87;;;25.10;85.10;;;;;;3566964;40;20561;-67
2021/06/17 02:56:12;;;;;;;18.03;17.03;;;25.10;85.10;;;;;;3576695;40;20495;-67
2021/06/17 02:58:53;;;;;;;19.37;18.17;;;25.10;85.00;;;;;;3575995;40;20487;-66
2021/06/17 03:01:27;;;;;;;20.63;19.23;;;25.10;85.10;;;;;;3574440;40;20479;-67
2021/06/17 03:03:59;;;;;;;19.13;17.73;;;25.10;85.00;;;;;;3576094;40;20889;-67
2021/06/17 03:06:34;;;;;;;18.63;17.53;;;25.10;85.00;;;;;;3556875;40;20558;-67
2021/06/17 03:09:04;;;;;;;18.20;17.20;;;25.10;85.00;;;;;;3557320;40;20976;-67
2021/06/17 03:11:34;;;;;;;18.60;17.40;;;25.10;85.10;;;;;;3565087;40;20506;-66
2021/06/17 03:14:09;;;;;;;19.20;18.00;;;25.10;85.00;;;;;;3579784;39;20489;-66
2021/06/17 03:16:39;;;;;;;19.13;17.93;;;25.10;85.00;;;;;;3597200;40;20574;-67
2021/06/17 03:19:10;;;;;;;20.07;18.73;;;25.10;85.00;;;;;;3596617;40;20484;-67
2021/06/17 03:21:41;;;;;;;19.80;18.50;;;25.10;85.10;;;;;;3596897;39;20570;-67
2021/06/17 03:24:11;;;;;;;19.63;18.23;;;25.10;85.10;;;;;;3596359;40;20473;-67
2021/06/17 03:26:43;;;;;;;19.07;17.93;;;25.10;85.00;;;;;;3598870;39;20479;-67
2021/06/17 03:29:13;;;;;;;17.83;16.73;;;25.10;85.00;;;;;;3606310;39;20484;-67
2021/06/17 03:31:42;;;;;;;18.57;17.40;;;25.10;85.10;;;;;;3605459;39;20573;-67
2021/06/17 03:34:13;;;;;;;18.50;17.40;;;25.10;85.00;;;;;;3607200;39;20475;-67
2021/06/17 03:36:42;;;;;;;16.47;15.57;;;25.10;85.00;;;;;;3607508;39;20468;-67
2021/06/17 03:39:10;;;;;;;17.37;16.37;;;25.10;85.00;;;;;;3606518;39;20480;-67
2021/06/17 03:41:40;;;;;;;18.20;17.03;;;25.10;85.00;;;;;;3599060;39;20477;-67
2021/06/17 03:44:11;;;;;;;19.73;18.47;;;25.10;85.10;;;;;;3581661;39;20853;-67
2021/06/17 03:46:39;;;;;;;18.10;17.03;;;25.10;85.10;;;;;;3606277;39;20530;-67
2021/06/17 03:49:08;;;;;;;19.53;18.23;;;25.10;85.00;;;;;;3605764;39;20484;-67
2021/06/17 03:51:39;;;;;;;18.50;17.33;;;25.10;85.00;;;;;;3604335;39;20492;-67
2021/06/17 03:54:07;;;;;;;19.10;17.60;;;25.10;85.10;;;;;;3603019;39;20505;-67
2021/06/17 03:56:38;;;;;;;18.90;17.70;;;25.10;85.00;;;;;;3599399;39;20484;-67
2021/06/17 03:59:08;;;;;;;18.47;17.37;;;25.10;85.00;;;;;;3605377;39;20488;-67
2021/06/17 04:01:36;;;;;;;18.37;17.27;;;25.10;85.10;;;;;;3600335;39;20485;-67
2021/06/17 04:04:04;;;;;;;18.77;17.67;;;25.10;85.10;;;;;;3596271;39;20470;-67
2021/06/17 04:06:33;;;;;;;19.67;18.57;;;25.10;85.10;;;;;;3595485;40;20481;-67
2021/06/17 04:09:04;;;;;;;19.13;18.03;;;25.10;85.00;;;;;;3595259;40;20488;-67
2021/06/17 04:11:33;;;;;;;19.27;18.17;;;25.10;85.00;;;;;;3600203;39;20468;-67
2021/06/17 04:14:00;;;;;;;20.00;18.70;;;25.10;85.00;;;;;;3602713;39;20489;-67
2021/06/17 04:16:31;;;;;;;19.20;17.90;;;25.10;85.00;;;;;;3595451;40;20488;-67
2021/06/17 04:19:00;;;;;;;19.93;18.73;;;25.10;85.00;;;;;;3594653;40;20493;-67
2021/06/17 04:21:30;;;;;;;19.40;18.10;;;25.10;85.00;;;;;;3594264;39;20481;-67
2021/06/17 04:23:59;;;;;;;20.10;18.80;;;25.10;85.00;;;;;;3596022;39;20952;-67
2021/06/17 04:26:29;;;;;;;20.63;19.23;;;25.10;84.90;;;;;;3605191;39;20904;-67
2021/06/17 04:28:58;;;;;;;19.60;18.40;;;25.10;84.90;;;;;;3603808;39;20488;-67
2021/06/17 04:31:29;;;;;;;19.90;18.63;;;25.10;84.80;;;;;;3603659;39;20496;-66
2021/06/17 04:33:57;;;;;;;20.53;19.23;;;25.20;84.80;;;;;;3593974;39;20760;-67
2021/06/17 04:36:26;;;;;;;20.23;19.03;;;25.20;84.80;;;;;;3592931;40;20478;-66
2021/06/17 04:38:54;;;;;;;20.70;19.20;;;25.20;84.80;;;;;;3594000;40;20508;-66
2021/06/17 04:41:22;;;;;;;19.83;18.60;;;25.20;84.80;;;;;;3593323;40;20472;-67
2021/06/17 04:43:51;;;;;;;20.20;18.80;;;25.20;84.70;;;;;;3592981;39;20501;-66
2021/06/17 04:46:21;;;;;;;20.23;19.03;;;25.20;84.70;;;;;;3594086;39;20485;-66
2021/06/17 04:48:51;;;;;;;19.67;18.33;;;25.20;84.70;;;;;;3592635;40;20481;-67
2021/06/17 04:51:20;;;;;;;19.87;18.57;;;25.20;84.70;;;;;;3591866;40;20492;-67
2021/06/17 04:53:50;;;;;;;20.10;18.90;;;25.20;84.70;;;;;;3599265;39;21055;-67
2021/06/17 04:56:18;;;;;;;21.77;20.33;;;25.20;84.70;;;;;;3590103;39;20739;-67
2021/06/17 04:58:49;;;;;;;20.60;19.37;;;25.20;84.70;;;;;;3601606;39;20487;-67
2021/06/17 05:01:19;;;;;;;19.57;18.27;;;25.20;84.70;;;;;;3601863;39;20488;-67
2021/06/17 05:03:48;;;;;;;20.53;19.23;;;25.20;84.70;;;;;;3595076;39;20485;-67
2021/06/17 05:06:18;;;;;;;20.17;18.77;;;25.20;84.70;;;;;;3591680;40;20493;-66
2021/06/17 05:11:32;;;;;;;19.87;18.57;;;25.20;84.60;;;;;;3588950;40;20480;-67
2021/06/17 05:14:00;;;;;;;19.33;18.23;;;25.20;84.70;;;;;;3589762;39;20571;-66
2021/06/17 05:16:29;;;;;;;21.03;19.40;;;25.20;84.00;;;;;;3590113;40;20484;-66
2021/06/17 05:18:56;;;;;;;20.13;18.63;;;24.90;84.20;;;;;;3589143;40;20485;-66
2021/06/17 05:21:24;;;;;;;20.00;18.70;;;24.60;83.60;;;;;;3587664;40;20561;-66
2021/06/17 05:23:52;;;;;;;19.63;18.37;;;24.40;83.80;;;;;;3595003;39;20486;-66
2021/06/17 05:26:22;;;;;;;19.70;18.50;;;24.30;84.70;;;;;;3587681;39;20477;-66
2021/06/17 05:28:51;;;;;;;19.60;18.40;;;24.30;85.50;;;;;;3596283;39;20521;-66
2021/06/17 05:31:20;;;;;;;19.23;18.20;;;24.10;86.20;;;;;;3573780;40;20467;-66
2021/06/17 05:33:50;;;;;;;19.97;18.53;;;24.00;86.10;;;;;;3575646;40;20489;-66
2021/06/17 05:36:17;;;;;;;19.33;18.23;;;24.00;86.60;;;;;;3576607;40;20482;-66
2021/06/17 05:38:46;;;;;;;18.63;17.53;;;23.90;86.80;;;;;;3576420;40;20493;-66
2021/06/17 05:41:13;;;;;;;18.27;17.30;;;23.90;87.20;;;;;;3574957;40;20474;-66
2021/06/17 05:43:41;;;;;;;19.93;18.53;;;23.90;87.20;;;;;;3572894;40;20486;-66
2021/06/17 05:46:09;;;;;;;19.07;17.97;;;24.00;87.60;;;;;;3572160;40;20501;-66
2021/06/17 05:48:37;;;;;;;18.83;17.80;;;24.00;87.70;;;;;;3562561;40;20514;-66
2021/06/17 05:51:06;;;;;;;19.70;18.50;;;24.00;87.90;;;;;;3571279;40;20567;-66
2021/06/17 05:53:35;;;;;;;21.10;19.27;;;24.00;87.80;;;;;;3572297;40;20514;-66
2021/06/17 05:56:03;;;;;;;19.57;18.17;;;24.00;88.10;;;;;;3570713;40;20474;-66
2021/06/17 05:58:34;;;;;;;19.77;18.07;;;24.00;87.90;;;;;;3563615;40;20489;-66
2021/06/17 06:01:02;;;;;;;19.17;17.73;;;24.00;88.70;;;;;;3569412;40;20489;-66
2021/06/17 06:03:33;;;;;;;18.30;17.10;;;24.10;88.80;;;;;;3567951;40;20723;-66
2021/06/17 06:06:01;;;;;;;17.73;16.70;;;24.10;88.20;;;;;;3570929;40;20478;-66
2021/06/17 06:08:30;;;;;;;18.53;17.37;;;24.20;88.40;;;;;;3563944;40;20854;-66
2021/06/17 06:10:58;;;;;;;19.20;17.90;;;24.30;88.60;;;;;;3566190;40;20489;-66
2021/06/17 06:13:26;;;;;;;17.77;16.57;;;24.30;88.70;;;;;;3566472;40;20485;-65
2021/06/17 06:15:54;;;;;;;18.30;17.10;;;24.30;88.90;;;;;;3560060;40;20950;-66
2021/06/17 06:18:25;;;;;;;17.77;16.70;;;24.30;88.90;;;;;;3565605;40;20574;-66
2021/06/17 06:20:56;;;;;;;19.27;17.83;;;24.30;88.90;;;;;;3563890;40;20473;-66
2021/06/17 06:23:24;;;;;;;17.80;16.90;;;24.40;88.50;;;;;;3564834;40;20497;-67
2021/06/17 06:25:55;;;;;;;20.00;18.40;;;24.50;88.20;;;;;;3563745;40;20478;-67
2021/06/17 06:28:24;;;;;;;20.53;18.83;;;24.60;88.20;;;;;;3565601;40;20863;-66
2021/06/17 06:30:53;;;;;;;16.90;15.90;;;24.60;87.80;;;;;;3567580;40;20498;-66
2021/06/17 06:33:22;;;;;;;18.90;17.63;;;24.70;87.80;;;;;;3566153;40;21304;-66
2021/06/17 06:35:51;;;;;;;18.97;17.77;;;24.70;87.50;;;;;;3574350;40;20622;-67
2021/06/17 06:38:19;;;;;;;18.90;17.37;;;24.80;87.60;;;;;;3576691;40;20562;-67
2021/06/17 06:40:48;;;;;;;17.70;16.33;;;24.80;87.70;;;;;;3563702;40;20497;-66
2021/06/17 06:43:17;;;;;;;18.93;17.37;;;24.70;87.50;;;;;;3564605;40;20497;-66
2021/06/17 06:45:46;;;;;;;17.53;16.60;;;24.80;87.40;;;;;;3565563;40;20630;-66
2021/06/17 06:48:18;;;;;;;18.90;17.77;;;24.80;87.20;;;;;;3566977;40;20493;-66
2021/06/17 06:50:47;;;;;;;20.27;18.97;;;24.90;87.20;;;;;;3559049;40;20482;-66
2021/06/17 06:53:15;;;;;;;18.83;17.73;;;24.90;87.20;;;;;;3564254;40;20481;-65
2021/06/17 06:55:43;;;;;;;17.70;16.80;;;25.00;87.30;;;;;;3564949;40;21015;-67
2021/06/17 06:58:13;;;;;;;18.33;17.37;;;25.00;87.10;;;;;;3557294;40;20479;-66
2021/06/17 07:00:44;;;;;;;18.63;17.63;;;25.00;87.10;;;;;;3560769;40;20482;-64
2021/06/17 07:03:12;;;;;;;18.70;17.40;;;25.00;86.90;;;;;;3567345;40;20481;-64
2021/06/17 07:05:41;;;;;;;18.93;17.63;;;25.00;86.90;;;;;;3567241;40;21152;-65
2021/06/17 07:08:10;;;;;;;18.00;16.90;;;25.00;86.90;;;;;;3566855;40;20486;-64
2021/06/17 07:10:40;;;;;;;19.00;17.80;;;25.10;87.00;;;;;;3565044;40;20997;-64
2021/06/17 07:13:08;;;;;;;18.40;17.23;;;25.10;86.90;;;;;;3564530;40;21096;-63
2021/06/17 07:15:35;;;;;;;19.17;17.97;;;25.00;86.80;;;;;;3567322;40;20481;-64
2021/06/17 07:18:06;;;;;;;18.40;17.40;;;25.10;86.80;;;;;;3565282;40;20496;-64
2021/06/17 07:20:33;;;;;;;18.20;16.90;;;25.10;86.80;;;;;;3578261;40;20488;-64
2021/06/17 07:23:02;;;;;;;18.93;17.80;;;25.10;86.70;;;;;;3568661;40;20500;-64
2021/06/17 07:25:30;;;;;;;18.87;17.63;;;25.10;86.60;;;;;;3567410;40;20490;-64
2021/06/17 07:27:59;;;;;;;19.93;18.83;;;25.10;86.50;;;;;;3568006;40;20474;-64
2021/06/17 07:30:27;;;;;;;19.50;18.50;;;25.10;86.60;;;;;;3565703;40;20482;-64
2021/06/17 07:32:55;;;;;;;19.57;18.33;;;25.10;86.40;;;;;;3558986;40;20908;-64
2021/06/17 07:35:25;;;;;;;18.60;17.40;;;25.10;86.30;;;;;;3563793;40;20488;-65
2021/06/17 07:37:53;;;;;;;17.70;16.70;;;25.20;86.40;;;;;;3565945;40;20890;-65
2021/06/17 07:40:22;;;;;;;18.00;16.93;;;25.20;86.40;;;;;;3573579;40;20688;-65
2021/06/17 07:42:50;;;;;;;18.50;17.60;;;25.20;86.30;;;;;;3568411;40;20584;-65
2021/06/17 07:45:18;;;;;;;19.43;18.00;;;25.20;86.30;;;;;;3565920;40;20481;-64
2021/06/17 07:47:46;;;;;;;18.27;16.73;;;25.10;86.20;;;;;;3565558;40;20473;-65
2021/06/17 07:50:14;;;;;;;18.07;17.03;;;25.20;86.30;;;;;;3570041;40;20868;-64
2021/06/17 07:52:43;;;;;;;17.73;16.73;;;25.20;86.30;;;;;;3577609;40;20489;-65
2021/06/17 07:55:12;;;;;;;17.60;16.70;;;25.20;86.30;;;;;;3577005;40;20523;-65
2021/06/17 07:57:40;;;;;;;19.00;17.70;;;25.20;86.10;;;;;;3557556;40;20492;-66
2021/06/17 08:00:10;;;;;;;17.40;16.50;;;25.20;86.10;;;;;;3563168;40;20745;-67
2021/06/17 08:02:39;;;;;;;17.80;16.90;;;25.20;86.10;;;;;;3568342;40;20509;-66
2021/06/17 08:05:08;;;;;;;17.83;16.80;;;25.20;86.00;;;;;;3565296;40;20490;-66
2021/06/17 08:07:35;;;;;;;18.13;17.00;;;25.20;86.00;;;;;;3570992;40;20567;-66
2021/06/17 08:10:06;;;;;;;18.73;17.50;;;25.20;85.90;;;;;;3569438;40;20579;-66
2021/06/17 08:12:34;;;;;;;16.83;16.00;;;25.20;85.70;;;;;;3565850;40;20602;-66
2021/06/17 08:15:02;;;;;;;17.17;16.17;;;25.20;85.70;;;;;;3563247;40;21191;-67
2021/06/17 08:17:29;;;;;;;17.40;16.50;;;25.20;85.50;;;;;;3564014;40;20502;-66
2021/06/17 08:19:58;;;;;;;17.83;16.60;;;25.20;85.50;;;;;;3566241;40;20619;-66
2021/06/17 08:22:28;;;;;;;17.30;16.40;;;25.20;85.40;;;;;;3564899;40;20474;-67
2021/06/17 08:24:56;;;;;;;19.13;18.07;;;25.20;85.30;;;;;;3569328;40;20501;-69
2021/06/17 08:27:25;;;;;;;16.97;16.07;;;25.20;85.30;;;;;;3566581;40;20479;-66
2021/06/17 08:29:54;;;;;;;17.57;16.60;;;25.20;85.40;;;;;;3564413;40;20486;-65
2021/06/17 08:32:22;;;;;;;18.17;17.27;;;25.20;85.40;;;;;;3568160;40;20568;-65
2021/06/17 08:34:49;;;;;;;18.30;17.40;;;25.20;85.40;;;;;;3574566;40;20481;-65
2021/06/17 08:37:17;;;;;;;18.73;17.67;;;25.20;85.50;;;;;;3575194;40;20509;-65
2021/06/17 08:39:45;;;;;;;18.33;17.33;;;25.30;85.60;;;;;;3573960;40;20631;-65
2021/06/17 08:42:13;;;;;;;17.83;16.70;;;25.30;85.70;;;;;;3579217;40;20488;-65
2021/06/17 08:44:42;;;;;;;17.10;16.20;;;25.30;85.70;;;;;;3579968;39;20581;-64
2021/06/17 08:47:11;;;;;;;18.60;17.60;;;25.20;85.70;;;;;;3577101;39;20533;-65
2021/06/17 08:49:39;;;;;;;18.97;17.67;;;25.30;85.90;;;;;;3588502;39;20472;-64
2021/06/17 08:52:07;;;;;;;18.20;17.17;;;25.30;86.00;;;;;;3582827;39;20539;-65
2021/06/17 08:54:35;;;;;;;18.33;17.20;;;25.30;86.00;;;;;;3581046;40;20503;-65
2021/06/17 08:57:04;;;;;;;19.53;18.27;;;25.30;86.00;;;;;;3575758;39;20484;-65
2021/06/17 08:59:32;;;;;;;18.80;17.80;;;25.30;86.10;;;;;;3562232;40;20534;-64
2021/06/17 09:02:01;;;;;;;19.80;18.40;;;25.30;86.20;;;;;;3564060;40;20493;-65
2021/06/17 09:04:30;;;;;;;19.40;18.20;;;25.30;86.30;;;;;;3562985;40;20515;-65
2021/06/17 09:07:04;;;;;;;18.07;16.87;;;25.30;86.30;;;;;;3571428;39;20559;-65
2021/06/17 09:09:37;;;;;;;18.17;16.97;;;25.30;86.40;;;;;;3573457;39;20504;-65
2021/06/17 09:12:07;;;;;;;20.37;19.07;;;25.30;86.50;;;;;;3577595;40;20815;-65
2021/06/17 09:14:37;;;;;;;18.90;17.90;;;25.30;86.60;;;;;;3576447;39;20485;-65
2021/06/17 09:17:08;;;;;;;19.93;18.23;;;25.30;86.70;;;;;;3578162;39;20968;-65
2021/06/17 09:19:42;;;;;;;19.40;18.27;;;25.30;86.70;;;;;;3578587;40;21283;-64
2021/06/17 09:22:14;;;;;;;18.60;17.60;;;25.30;86.70;;;;;;3583767;39;20793;-64
2021/06/17 09:24:44;;;;;;;19.40;18.40;;;25.30;86.70;;;;;;3578274;39;20570;-64
2021/06/17 09:27:28;;;;;;;20.10;18.80;;;25.30;86.60;;;;;;3582764;39;20566;-64
2021/06/17 09:29:57;;;;;;;19.80;18.60;;;25.30;86.60;;;;;;3575048;40;20542;-65
2021/06/17 09:32:27;;;;;;;21.50;20.20;;;25.30;86.60;;;;;;3581193;39;20611;-66
2021/06/17 09:34:55;;;;;;;19.60;18.50;;;25.30;86.60;;;;;;3579998;39;21229;-65
2021/06/17 09:37:36;;;;;;;20.30;19.00;;;25.30;86.50;;;;;;3577739;39;20632;-65
2021/06/17 09:40:27;;;;;;;19.20;18.10;;;25.30;86.40;;;;;;3575067;39;20501;-65
2021/06/17 09:43:15;;;;;;;20.07;18.87;;;25.30;86.30;;;;;;3583781;39;20480;-66
2021/06/17 09:45:52;;;;;;;19.20;18.03;;;25.30;86.20;;;;;;3584412;39;20536;-66
2021/06/17 09:48:41;;;;;;;19.00;17.93;;;25.30;85.90;;;;;;3583017;39;20483;-65
2021/06/17 09:51:29;;;;;;;19.17;18.17;;;25.30;85.80;;;;;;3565978;40;20470;-66
2021/06/17 09:54:20;;;;;;;18.97;17.97;;;25.30;85.60;;;;;;3565428;40;21249;-66
2021/06/17 09:56:55;;;;;;;19.70;18.70;;;25.40;85.50;;;;;;3565599;40;20485;-66
2021/06/17 09:59:39;;;;;;;19.63;18.23;;;25.40;85.30;;;;;;3583050;39;20492;-66
2021/06/17 10:02:09;;;;;;;19.13;17.73;;;25.40;85.30;;;;;;3576582;39;20545;-65
2021/06/17 10:04:43;;;;;;;20.63;19.20;;;25.30;85.10;;;;;;3585614;39;20484;-65
2021/06/17 10:07:12;;;;;;;19.83;18.63;;;25.30;85.00;;;;;;3585295;39;20516;-65
2021/06/17 10:09:40;;;;;;;19.77;18.50;;;25.40;85.00;;;;;;3578187;39;20766;-64
2021/06/17 10:12:09;;;;;;;19.80;18.43;;;25.40;85.00;;;;;;3577210;40;21304;-65
2021/06/17 10:14:38;;;;;;;20.20;18.70;;;25.40;84.90;;;;;;3577239;40;20477;-65
2021/06/17 10:17:07;;;;;;;19.53;18.30;;;25.40;84.80;;;;;;3580035;39;20491;-65
2021/06/17 10:19:35;;;;;;;20.10;18.20;;;25.40;84.70;;;;;;3586992;39;20492;-65
2021/06/17 10:22:04;;;;;;;18.77;17.57;;;25.40;84.70;;;;;;3578405;39;20485;-65
2021/06/17 10:24:37;;;;;;;19.50;18.30;;;25.40;84.60;;;;;;3574857;40;21316;-64
2021/06/17 10:27:10;;;;;;;19.23;18.03;;;25.40;84.40;;;;;;3582881;39;20480;-64
2021/06/17 10:29:40;;;;;;;19.40;18.10;;;25.40;84.30;;;;;;3572742;40;20485;-65
2021/06/17 10:32:11;;;;;;;19.57;18.07;;;25.40;84.20;;;;;;3574538;39;20509;-65
2021/06/17 10:34:46;;;;;;;18.27;17.23;;;25.40;84.10;;;;;;3581042;39;20481;-65
2021/06/17 10:37:19;;;;;;;17.80;16.90;;;25.40;83.80;;;;;;3587080;39;20597;-64
2021/06/17 10:39:49;;;;;;;18.73;17.60;;;25.40;83.60;;;;;;3583032;39;20497;-64
2021/06/17 10:42:31;;;;;;;18.40;17.30;;;25.40;83.50;;;;;;3581547;39;20501;-64
2021/06/17 10:45:02;;;;;;;17.80;16.80;;;25.40;84.20;;;;;;3579434;39;20493;-66
2021/06/17 10:48:09;;;;;;;19.03;17.93;;;25.40;83.30;;;;;;3579564;39;20511;-65
2021/06/17 10:50:55;;;;;;;19.00;17.90;;;25.40;83.20;;;;;;3529671;40;20598;-67
2021/06/17 10:53:46;;;;;;;51.90;37.67;;;25.40;83.10;;;;;;3534210;40;20804;-65
2021/06/17 10:56:38;;;;;;;38.07;33.43;;;25.40;82.90;;;;;;3556398;40;20520;-65
2021/06/17 10:59:07;;;;;;;38.07;33.30;;;25.40;82.80;;;;;;3582714;39;20581;-65
2021/06/17 11:01:42;;;;;;;42.60;33.27;;;25.40;82.70;;;;;;3586753;39;20839;-65
2021/06/17 11:04:38;;;;;;;41.50;35.90;;;25.40;82.60;;;;;;3565417;40;20551;-65
2021/06/17 11:07:17;;;;;;;46.73;37.40;;;25.40;82.60;;;;;;3578070;39;20488;-65
2021/06/17 11:10:05;;;;;;;45.13;38.63;;;25.40;82.50;;;;;;3580364;39;20497;-67
2021/06/17 11:12:59;;;;;;;47.77;33.70;;;25.40;82.40;;;;;;3579064;39;20491;-68
2021/06/17 11:15:41;;;;;;;41.73;33.90;;;25.40;82.30;;;;;;3586530;39;20497;-68
2021/06/17 11:18:10;;;;;;;33.70;30.10;;;25.40;82.20;;;;;;3587571;39;20480;-68
2021/06/17 11:20:40;;;;;;;33.33;29.73;;;25.40;82.10;;;;;;3587973;39;20569;-68
2021/06/17 11:23:08;;;;;;;33.17;28.53;;;25.40;82.10;;;;;;3580116;39;20513;-68
2021/06/17 11:25:40;;;;;;;30.93;27.70;;;25.40;82.70;;;;;;3586440;39;20521;-67
2021/06/17 11:28:09;;;;;;;29.23;26.30;;;25.40;81.80;;;;;;3586186;39;20510;-65
2021/06/17 11:30:58;;;;;;;29.47;26.33;;;25.40;81.80;;;;;;3587295;39;20485;-65
2021/06/17 11:33:44;;;;;;;28.10;25.33;;;25.50;81.80;;;;;;3582408;39;20480;-65
2021/06/17 11:36:17;;;;;;;25.97;23.53;;;25.50;81.70;;;;;;3578700;39;20577;-64
2021/06/17 11:38:49;;;;;;;25.57;23.27;;;25.50;81.60;;;;;;3581624;39;20805;-65
2021/06/17 11:41:24;;;;;;;23.37;21.53;;;25.50;81.50;;;;;;3577311;40;20488;-65
2021/06/17 11:43:59;;;;;;;23.27;21.43;;;25.50;81.50;;;;;;3579090;40;20529;-65
2021/06/17 11:46:37;;;;;;;24.27;22.07;;;25.50;81.50;;;;;;3579192;39;20944;-65
2021/06/17 11:49:07;;;;;;;24.03;19.83;;;25.50;81.50;;;;;;3576597;40;20562;-65
2021/06/17 11:51:46;;;;;;;24.30;22.60;;;25.50;81.50;;;;;;3578514;40;20473;-65
2021/06/17 11:54:21;;;;;;;21.30;19.90;;;25.50;81.50;;;;;;3579378;40;20493;-65
2021/06/17 11:56:52;;;;;;;22.17;20.57;;;25.50;81.50;;;;;;3574271;39;20488;-65
2021/06/17 11:59:27;;;;;;;21.80;20.40;;;25.50;81.50;;;;;;3585049;39;20468;-65
2021/06/17 12:02:14;;;;;;;20.47;19.17;;;25.50;81.50;;;;;;3583562;39;20514;-68
2021/06/17 12:04:44;;;;;;;20.10;18.60;;;25.50;81.50;;;;;;3588091;39;20480;-65
2021/06/17 12:07:15;;;;;;;21.30;19.90;;;25.50;81.40;;;;;;3575562;39;20940;-68
2021/06/17 12:09:45;;;;;;;19.47;18.30;;;25.50;81.40;;;;;;3586080;39;20514;-68
2021/06/17 12:12:20;;;;;;;19.73;18.53;;;25.50;81.40;;;;;;3587111;39;21011;-68
2021/06/17 12:14:50;;;;;;;20.60;19.17;;;25.50;81.30;;;;;;3586177;39;20475;-68
2021/06/17 12:17:32;;;;;;;20.20;19.03;;;25.50;81.30;;;;;;3577445;39;20493;-68
2021/06/17 12:20:01;;;;;;;20.73;19.53;;;25.50;81.30;;;;;;3581626;39;20488;-65
2021/06/17 12:22:29;;;;;;;20.80;19.60;;;25.50;81.20;;;;;;3581669;39;20481;-65
2021/06/17 12:24:57;;;;;;;19.57;18.47;;;25.50;81.20;;;;;;3575960;40;20508;-65
2021/06/17 12:27:27;;;;;;;18.90;17.87;;;25.50;81.20;;;;;;3578913;39;21410;-65
2021/06/17 12:29:54;;;;;;;20.67;19.27;;;25.50;81.20;;;;;;3572875;39;20591;-66
2021/06/17 12:32:35;;;;;;;21.03;19.73;;;25.50;81.20;;;;;;3588541;39;20488;-66
2021/06/17 12:35:11;;;;;;;19.23;18.13;;;25.50;81.30;;;;;;3586800;39;20480;-64
2021/06/17 12:37:53;;;;;;;19.47;18.30;;;25.50;81.30;;;;;;3589015;39;21256;-65
2021/06/17 12:40:31;;;;;;;20.20;18.90;;;25.50;81.30;;;;;;3590109;39;20487;-65
2021/06/17 12:43:12;;;;;;;21.30;19.90;;;25.50;81.30;;;;;;3592184;39;20565;-64
2021/06/17 12:45:41;;;;;;;20.90;19.50;;;25.50;81.40;;;;;;3587519;39;20477;-64
2021/06/17 12:48:15;;;;;;;19.83;18.53;;;25.50;81.30;;;;;;3578362;39;20507;-65
2021/06/17 12:53:47;;;;;;;19.33;18.07;;;25.50;81.40;;;;;;3580894;39;20481;-64